sensor_id;sensor_type;location;lat;lon;timestamp;P1;durP1;ratioP1;P2;durP2;ratioP2
43710;SDS011;29309;42.682;23.372;2022-09-09T00:01:46;7.43;;;6.13;;
43710;SDS011;29309;42.682;23.372;2022-09-09T00:07:13;7.40;;;5.55;;
43710;SDS011;29309;42.682;23.372;2022-09-09T00:09:49;8.00;;;5.72;;
43710;SDS011;29309;42.682;23.372;2022-09-09T00:15:13;10.13;;;6.50;;
43710;SDS011;29309;42.682;23.372;2022-09-09T00:20:45;13.07;;;7.10;;
43710;SDS011;29309;42.682;23.372;2022-09-09T00:23:24;10.02;;;7.63;;
43710;SDS011;29309;42.682;23.372;2022-09-09T00:26:02;8.60;;;6.50;;
43710;SDS011;29309;42.682;23.372;2022-09-09T00:28:36;12.68;;;8.25;;
43710;SDS011;29309;42.682;23.372;2022-09-09T00:31:12;11.02;;;8.07;;
43710;SDS011;29309;42.682;23.372;2022-09-09T00:33:41;8.75;;;6.78;;
43710;SDS011;29309;42.682;23.372;2022-09-09T00:36:15;10.65;;;7.72;;
43710;SDS011;29309;42.682;23.372;2022-09-09T00:38:52;12.57;;;7.78;;
43710;SDS011;29309;42.682;23.372;2022-09-09T00:44:15;14.75;;;7.70;;
43710;SDS011;29309;42.682;23.372;2022-09-09T00:46:59;14.73;;;8.23;;
43710;SDS011;29309;42.682;23.372;2022-09-09T00:52:34;9.55;;;6.15;;
43710;SDS011;29309;42.682;23.372;2022-09-09T00:58:18;8.93;;;5.70;;
43710;SDS011;29309;42.682;23.372;2022-09-09T01:00:44;8.80;;;6.05;;
43710;SDS011;29309;42.682;23.372;2022-09-09T01:03:42;7.40;;;5.82;;
43710;SDS011;29309;42.682;23.372;2022-09-09T01:11:32;11.02;;;6.28;;
43710;SDS011;29309;42.682;23.372;2022-09-09T01:14:24;7.15;;;6.30;;
43710;SDS011;29309;42.682;23.372;2022-09-09T01:16:56;8.45;;;6.63;;
43710;SDS011;29309;42.682;23.372;2022-09-09T01:25:01;6.70;;;5.95;;
43710;SDS011;29309;42.682;23.372;2022-09-09T01:27:30;8.93;;;5.95;;
43710;SDS011;29309;42.682;23.372;2022-09-09T01:29:57;10.07;;;6.25;;
43710;SDS011;29309;42.682;23.372;2022-09-09T01:32:38;8.43;;;5.93;;
43710;SDS011;29309;42.682;23.372;2022-09-09T01:35:18;7.18;;;6.38;;
43710;SDS011;29309;42.682;23.372;2022-09-09T01:37:47;6.97;;;5.72;;
43710;SDS011;29309;42.682;23.372;2022-09-09T01:40:14;7.68;;;5.95;;
43710;SDS011;29309;42.682;23.372;2022-09-09T01:42:39;10.63;;;6.00;;
43710;SDS011;29309;42.682;23.372;2022-09-09T01:45:05;8.20;;;6.22;;
43710;SDS011;29309;42.682;23.372;2022-09-09T01:47:31;15.52;;;6.93;;
43710;SDS011;29309;42.682;23.372;2022-09-09T01:49:57;6.88;;;5.80;;
43710;SDS011;29309;42.682;23.372;2022-09-09T01:52:24;9.63;;;6.03;;
43710;SDS011;29309;42.682;23.372;2022-09-09T01:54:49;8.95;;;6.30;;
43710;SDS011;29309;42.682;23.372;2022-09-09T01:57:28;11.48;;;5.97;;
43710;SDS011;29309;42.682;23.372;2022-09-09T02:00:11;7.78;;;5.85;;
43710;SDS011;29309;42.682;23.372;2022-09-09T02:07:48;8.55;;;6.13;;
43710;SDS011;29309;42.682;23.372;2022-09-09T02:10:24;8.57;;;5.78;;
43710;SDS011;29309;42.682;23.372;2022-09-09T02:13:16;10.52;;;6.75;;
43710;SDS011;29309;42.682;23.372;2022-09-09T02:16:27;10.07;;;6.03;;
43710;SDS011;29309;42.682;23.372;2022-09-09T02:18:42;11.23;;;6.53;;
43710;SDS011;29309;42.682;23.372;2022-09-09T02:21:14;11.20;;;6.15;;
43710;SDS011;29309;42.682;23.372;2022-09-09T02:23:42;9.70;;;6.55;;
43710;SDS011;29309;42.682;23.372;2022-09-09T02:26:11;12.63;;;6.78;;
43710;SDS011;29309;42.682;23.372;2022-09-09T02:28:44;11.55;;;6.30;;
43710;SDS011;29309;42.682;23.372;2022-09-09T02:31:12;7.68;;;6.00;;
43710;SDS011;29309;42.682;23.372;2022-09-09T02:33:41;7.95;;;6.20;;
43710;SDS011;29309;42.682;23.372;2022-09-09T02:36:10;9.93;;;6.95;;
43710;SDS011;29309;42.682;23.372;2022-09-09T02:38:42;14.38;;;6.45;;
43710;SDS011;29309;42.682;23.372;2022-09-09T02:41:15;10.15;;;6.22;;
43710;SDS011;29309;42.682;23.372;2022-09-09T02:43:46;10.00;;;6.22;;
43710;SDS011;29309;42.682;23.372;2022-09-09T02:49:00;9.75;;;6.47;;
43710;SDS011;29309;42.682;23.372;2022-09-09T02:56:45;8.77;;;6.97;;
43710;SDS011;29309;42.682;23.372;2022-09-09T02:59:18;9.00;;;7.57;;
43710;SDS011;29309;42.682;23.372;2022-09-09T03:01:43;10.27;;;6.90;;
43710;SDS011;29309;42.682;23.372;2022-09-09T03:04:10;11.48;;;6.60;;
43710;SDS011;29309;42.682;23.372;2022-09-09T03:06:35;10.70;;;6.45;;
43710;SDS011;29309;42.682;23.372;2022-09-09T03:09:00;8.80;;;6.35;;
43710;SDS011;29309;42.682;23.372;2022-09-09T03:11:27;9.60;;;6.88;;
43710;SDS011;29309;42.682;23.372;2022-09-09T03:13:53;9.70;;;7.00;;
43710;SDS011;29309;42.682;23.372;2022-09-09T03:16:21;10.85;;;7.30;;
43710;SDS011;29309;42.682;23.372;2022-09-09T03:18:49;9.90;;;5.88;;
43710;SDS011;29309;42.682;23.372;2022-09-09T03:21:15;9.50;;;7.38;;
43710;SDS011;29309;42.682;23.372;2022-09-09T03:23:40;9.38;;;6.38;;
43710;SDS011;29309;42.682;23.372;2022-09-09T03:26:06;11.77;;;7.13;;
43710;SDS011;29309;42.682;23.372;2022-09-09T03:28:32;9.00;;;6.80;;
43710;SDS011;29309;42.682;23.372;2022-09-09T03:31:02;13.00;;;6.97;;
43710;SDS011;29309;42.682;23.372;2022-09-09T03:33:29;11.80;;;6.75;;
43710;SDS011;29309;42.682;23.372;2022-09-09T03:35:56;8.40;;;6.78;;
43710;SDS011;29309;42.682;23.372;2022-09-09T03:38:24;9.80;;;7.75;;
43710;SDS011;29309;42.682;23.372;2022-09-09T03:40:50;14.50;;;7.57;;
43710;SDS011;29309;42.682;23.372;2022-09-09T03:43:20;12.35;;;7.22;;
43710;SDS011;29309;42.682;23.372;2022-09-09T03:45:46;8.70;;;7.45;;
43710;SDS011;29309;42.682;23.372;2022-09-09T03:48:15;11.43;;;7.55;;
43710;SDS011;29309;42.682;23.372;2022-09-09T03:50:51;18.92;;;7.95;;
43710;SDS011;29309;42.682;23.372;2022-09-09T03:55:48;12.23;;;7.68;;
43710;SDS011;29309;42.682;23.372;2022-09-09T03:58:15;11.68;;;7.82;;
43710;SDS011;29309;42.682;23.372;2022-09-09T04:00:43;21.83;;;8.23;;
43710;SDS011;29309;42.682;23.372;2022-09-09T04:03:10;12.20;;;7.20;;
43710;SDS011;29309;42.682;23.372;2022-09-09T04:05:36;8.43;;;7.25;;
43710;SDS011;29309;42.682;23.372;2022-09-09T04:08:08;11.05;;;7.68;;
43710;SDS011;29309;42.682;23.372;2022-09-09T04:10:33;16.27;;;7.45;;
43710;SDS011;29309;42.682;23.372;2022-09-09T04:13:01;11.23;;;7.18;;
43710;SDS011;29309;42.682;23.372;2022-09-09T04:15:27;16.33;;;8.02;;
43710;SDS011;29309;42.682;23.372;2022-09-09T04:17:53;12.82;;;7.63;;
43710;SDS011;29309;42.682;23.372;2022-09-09T04:20:18;12.63;;;7.38;;
43710;SDS011;29309;42.682;23.372;2022-09-09T04:22:44;13.73;;;8.20;;
43710;SDS011;29309;42.682;23.372;2022-09-09T04:25:10;12.43;;;8.82;;
43710;SDS011;29309;42.682;23.372;2022-09-09T04:27:35;13.13;;;9.82;;
43710;SDS011;29309;42.682;23.372;2022-09-09T04:30:01;20.73;;;9.50;;
43710;SDS011;29309;42.682;23.372;2022-09-09T04:32:26;10.95;;;7.68;;
43710;SDS011;29309;42.682;23.372;2022-09-09T04:34:52;13.02;;;8.30;;
43710;SDS011;29309;42.682;23.372;2022-09-09T04:37:18;10.68;;;8.65;;
43710;SDS011;29309;42.682;23.372;2022-09-09T04:39:43;16.77;;;8.50;;
43710;SDS011;29309;42.682;23.372;2022-09-09T04:42:09;12.27;;;7.95;;
43710;SDS011;29309;42.682;23.372;2022-09-09T04:44:35;14.20;;;9.05;;
43710;SDS011;29309;42.682;23.372;2022-09-09T04:47:01;10.68;;;7.72;;
43710;SDS011;29309;42.682;23.372;2022-09-09T04:49:26;10.55;;;7.93;;
43710;SDS011;29309;42.682;23.372;2022-09-09T04:51:51;11.65;;;7.45;;
43710;SDS011;29309;42.682;23.372;2022-09-09T04:54:17;13.82;;;7.85;;
43710;SDS011;29309;42.682;23.372;2022-09-09T04:56:43;26.60;;;8.05;;
43710;SDS011;29309;42.682;23.372;2022-09-09T04:59:09;11.13;;;7.53;;
43710;SDS011;29309;42.682;23.372;2022-09-09T05:01:35;23.35;;;9.13;;
43710;SDS011;29309;42.682;23.372;2022-09-09T05:04:01;16.00;;;8.35;;
43710;SDS011;29309;42.682;23.372;2022-09-09T05:06:27;12.13;;;7.50;;
43710;SDS011;29309;42.682;23.372;2022-09-09T05:08:56;15.75;;;7.45;;
43710;SDS011;29309;42.682;23.372;2022-09-09T05:11:24;10.23;;;7.93;;
43710;SDS011;29309;42.682;23.372;2022-09-09T05:13:51;18.77;;;8.55;;
43710;SDS011;29309;42.682;23.372;2022-09-09T05:16:17;17.77;;;7.90;;
43710;SDS011;29309;42.682;23.372;2022-09-09T05:18:43;13.27;;;7.53;;
43710;SDS011;29309;42.682;23.372;2022-09-09T05:21:11;13.85;;;7.80;;
43710;SDS011;29309;42.682;23.372;2022-09-09T05:23:37;16.05;;;8.27;;
43710;SDS011;29309;42.682;23.372;2022-09-09T05:26:03;13.10;;;7.10;;
43710;SDS011;29309;42.682;23.372;2022-09-09T05:28:29;17.67;;;7.47;;
43710;SDS011;29309;42.682;23.372;2022-09-09T05:30:59;14.40;;;7.40;;
43710;SDS011;29309;42.682;23.372;2022-09-09T05:33:28;12.98;;;7.68;;
43710;SDS011;29309;42.682;23.372;2022-09-09T05:35:58;15.23;;;9.07;;
43710;SDS011;29309;42.682;23.372;2022-09-09T05:38:25;12.90;;;7.90;;
43710;SDS011;29309;42.682;23.372;2022-09-09T05:40:51;11.27;;;8.10;;
43710;SDS011;29309;42.682;23.372;2022-09-09T05:43:17;14.52;;;8.65;;
43710;SDS011;29309;42.682;23.372;2022-09-09T05:45:45;15.00;;;8.20;;
43710;SDS011;29309;42.682;23.372;2022-09-09T05:48:16;15.18;;;7.88;;
43710;SDS011;29309;42.682;23.372;2022-09-09T05:50:42;9.98;;;6.95;;
43710;SDS011;29309;42.682;23.372;2022-09-09T05:53:08;15.95;;;7.18;;
43710;SDS011;29309;42.682;23.372;2022-09-09T05:55:35;16.42;;;8.00;;
43710;SDS011;29309;42.682;23.372;2022-09-09T05:58:00;9.13;;;6.53;;
43710;SDS011;29309;42.682;23.372;2022-09-09T06:00:26;12.77;;;5.57;;
43710;SDS011;29309;42.682;23.372;2022-09-09T06:02:52;6.22;;;4.70;;
43710;SDS011;29309;42.682;23.372;2022-09-09T06:05:18;7.88;;;4.70;;
43710;SDS011;29309;42.682;23.372;2022-09-09T06:07:44;6.20;;;4.97;;
43710;SDS011;29309;42.682;23.372;2022-09-09T06:10:10;13.57;;;6.32;;
43710;SDS011;29309;42.682;23.372;2022-09-09T06:12:38;10.45;;;5.63;;
43710;SDS011;29309;42.682;23.372;2022-09-09T06:15:08;8.98;;;4.72;;
43710;SDS011;29309;42.682;23.372;2022-09-09T06:17:34;6.47;;;3.85;;
43710;SDS011;29309;42.682;23.372;2022-09-09T06:19:59;4.93;;;3.80;;
43710;SDS011;29309;42.682;23.372;2022-09-09T06:22:25;6.18;;;4.70;;
43710;SDS011;29309;42.682;23.372;2022-09-09T06:24:50;8.95;;;4.07;;
43710;SDS011;29309;42.682;23.372;2022-09-09T06:27:16;5.65;;;4.05;;
43710;SDS011;29309;42.682;23.372;2022-09-09T06:29:41;11.85;;;4.60;;
43710;SDS011;29309;42.682;23.372;2022-09-09T06:32:07;7.63;;;4.47;;
43710;SDS011;29309;42.682;23.372;2022-09-09T06:34:33;10.98;;;3.92;;
43710;SDS011;29309;42.682;23.372;2022-09-09T06:36:59;6.15;;;3.63;;
43710;SDS011;29309;42.682;23.372;2022-09-09T06:41:18;22.00;;;5.07;;
43710;SDS011;29309;42.682;23.372;2022-09-09T06:43:48;8.95;;;3.67;;
43710;SDS011;29309;42.682;23.372;2022-09-09T06:46:18;11.93;;;7.22;;
43710;SDS011;29309;42.682;23.372;2022-09-09T06:48:45;7.95;;;3.65;;
43710;SDS011;29309;42.682;23.372;2022-09-09T06:51:12;8.32;;;4.07;;
43710;SDS011;29309;42.682;23.372;2022-09-09T06:53:40;8.15;;;4.25;;
43710;SDS011;29309;42.682;23.372;2022-09-09T06:58:41;11.27;;;4.00;;
43710;SDS011;29309;42.682;23.372;2022-09-09T07:01:14;10.45;;;4.00;;
43710;SDS011;29309;42.682;23.372;2022-09-09T07:03:42;37.55;;;13.52;;
43710;SDS011;29309;42.682;23.372;2022-09-09T07:06:13;24.00;;;11.05;;
43710;SDS011;29309;42.682;23.372;2022-09-09T07:08:40;9.52;;;4.78;;
43710;SDS011;29309;42.682;23.372;2022-09-09T07:11:07;11.18;;;4.03;;
43710;SDS011;29309;42.682;23.372;2022-09-09T07:13:33;5.35;;;3.83;;
43710;SDS011;29309;42.682;23.372;2022-09-09T07:16:06;6.93;;;3.55;;
43710;SDS011;29309;42.682;23.372;2022-09-09T07:18:36;12.48;;;3.83;;
43710;SDS011;29309;42.682;23.372;2022-09-09T07:21:02;8.10;;;3.25;;
43710;SDS011;29309;42.682;23.372;2022-09-09T07:23:29;9.77;;;3.75;;
43710;SDS011;29309;42.682;23.372;2022-09-09T07:25:55;4.07;;;2.92;;
43710;SDS011;29309;42.682;23.372;2022-09-09T07:28:23;6.15;;;2.97;;
43710;SDS011;29309;42.682;23.372;2022-09-09T07:30:55;7.45;;;3.38;;
43710;SDS011;29309;42.682;23.372;2022-09-09T07:33:23;6.45;;;3.38;;
43710;SDS011;29309;42.682;23.372;2022-09-09T07:35:49;6.63;;;3.35;;
43710;SDS011;29309;42.682;23.372;2022-09-09T07:38:15;13.10;;;3.67;;
43710;SDS011;29309;42.682;23.372;2022-09-09T07:40:41;8.10;;;3.50;;
43710;SDS011;29309;42.682;23.372;2022-09-09T07:43:07;5.68;;;3.28;;
43710;SDS011;29309;42.682;23.372;2022-09-09T07:45:33;7.25;;;3.92;;
43710;SDS011;29309;42.682;23.372;2022-09-09T07:48:03;10.73;;;4.10;;
43710;SDS011;29309;42.682;23.372;2022-09-09T07:50:30;7.40;;;4.22;;
43710;SDS011;29309;42.682;23.372;2022-09-09T07:52:56;9.40;;;3.90;;
43710;SDS011;29309;42.682;23.372;2022-09-09T07:55:21;6.18;;;4.38;;
43710;SDS011;29309;42.682;23.372;2022-09-09T07:57:52;6.55;;;4.78;;
43710;SDS011;29309;42.682;23.372;2022-09-09T08:00:18;13.30;;;3.75;;
43710;SDS011;29309;42.682;23.372;2022-09-09T08:02:44;7.05;;;4.60;;
43710;SDS011;29309;42.682;23.372;2022-09-09T08:05:11;7.53;;;3.30;;
43710;SDS011;29309;42.682;23.372;2022-09-09T08:07:37;11.18;;;3.75;;
43710;SDS011;29309;42.682;23.372;2022-09-09T08:10:03;5.43;;;3.15;;
43710;SDS011;29309;42.682;23.372;2022-09-09T08:12:32;7.20;;;3.55;;
43710;SDS011;29309;42.682;23.372;2022-09-09T08:14:58;5.35;;;3.13;;
43710;SDS011;29309;42.682;23.372;2022-09-09T08:17:23;4.32;;;3.35;;
43710;SDS011;29309;42.682;23.372;2022-09-09T08:19:49;5.65;;;3.60;;
43710;SDS011;29309;42.682;23.372;2022-09-09T08:22:14;7.45;;;3.33;;
43710;SDS011;29309;42.682;23.372;2022-09-09T08:24:40;6.95;;;3.72;;
43710;SDS011;29309;42.682;23.372;2022-09-09T08:27:06;7.40;;;4.57;;
43710;SDS011;29309;42.682;23.372;2022-09-09T08:29:31;9.73;;;4.10;;
43710;SDS011;29309;42.682;23.372;2022-09-09T08:31:57;16.92;;;4.75;;
43710;SDS011;29309;42.682;23.372;2022-09-09T08:34:23;6.82;;;3.55;;
43710;SDS011;29309;42.682;23.372;2022-09-09T08:36:52;5.35;;;3.30;;
43710;SDS011;29309;42.682;23.372;2022-09-09T08:39:19;9.23;;;3.92;;
43710;SDS011;29309;42.682;23.372;2022-09-09T08:44:40;4.40;;;3.67;;
43710;SDS011;29309;42.682;23.372;2022-09-09T08:47:17;8.15;;;3.75;;
43710;SDS011;29309;42.682;23.372;2022-09-09T08:55:54;12.30;;;4.47;;
43710;SDS011;29309;42.682;23.372;2022-09-09T08:58:33;5.43;;;4.00;;
43710;SDS011;29309;42.682;23.372;2022-09-09T09:03:36;6.13;;;4.32;;
43710;SDS011;29309;42.682;23.372;2022-09-09T09:11:59;8.82;;;4.53;;
43710;SDS011;29309;42.682;23.372;2022-09-09T09:14:47;8.23;;;4.20;;
43710;SDS011;29309;42.682;23.372;2022-09-09T09:17:20;7.65;;;4.07;;
43710;SDS011;29309;42.682;23.372;2022-09-09T09:19:49;14.15;;;4.30;;
43710;SDS011;29309;42.682;23.372;2022-09-09T09:30:23;6.32;;;3.67;;
43710;SDS011;29309;42.682;23.372;2022-09-09T09:32:53;5.85;;;3.92;;
43710;SDS011;29309;42.682;23.372;2022-09-09T09:35:21;8.18;;;4.32;;
43710;SDS011;29309;42.682;23.372;2022-09-09T09:37:47;8.35;;;3.50;;
43710;SDS011;29309;42.682;23.372;2022-09-09T09:40:14;10.02;;;4.05;;
43710;SDS011;29309;42.682;23.372;2022-09-09T09:42:49;9.02;;;3.80;;
43710;SDS011;29309;42.682;23.372;2022-09-09T09:48:03;5.40;;;3.72;;
43710;SDS011;29309;42.682;23.372;2022-09-09T09:50:31;11.10;;;4.30;;
43710;SDS011;29309;42.682;23.372;2022-09-09T09:53:02;6.50;;;4.22;;
43710;SDS011;29309;42.682;23.372;2022-09-09T09:55:32;9.35;;;4.45;;
43710;SDS011;29309;42.682;23.372;2022-09-09T09:58:01;9.43;;;5.15;;
43710;SDS011;29309;42.682;23.372;2022-09-09T10:00:28;11.80;;;6.32;;
43710;SDS011;29309;42.682;23.372;2022-09-09T10:02:54;6.63;;;5.35;;
43710;SDS011;29309;42.682;23.372;2022-09-09T10:05:28;9.18;;;4.00;;
43710;SDS011;29309;42.682;23.372;2022-09-09T10:08:02;7.00;;;3.47;;
43710;SDS011;29309;42.682;23.372;2022-09-09T10:13:36;6.18;;;3.88;;
43710;SDS011;29309;42.682;23.372;2022-09-09T10:19:30;10.82;;;4.68;;
43710;SDS011;29309;42.682;23.372;2022-09-09T10:24:59;6.85;;;4.47;;
43710;SDS011;29309;42.682;23.372;2022-09-09T10:27:41;8.85;;;4.43;;
43710;SDS011;29309;42.682;23.372;2022-09-09T10:33:09;8.03;;;4.40;;
43710;SDS011;29309;42.682;23.372;2022-09-09T10:38:45;11.05;;;4.40;;
43710;SDS011;29309;42.682;23.372;2022-09-09T10:51:45;5.88;;;4.60;;
43710;SDS011;29309;42.682;23.372;2022-09-09T10:57:08;9.38;;;4.95;;
43710;SDS011;29309;42.682;23.372;2022-09-09T11:00:03;8.55;;;4.10;;
43710;SDS011;29309;42.682;23.372;2022-09-09T11:02:41;10.05;;;5.05;;
43710;SDS011;29309;42.682;23.372;2022-09-09T11:05:18;7.07;;;4.88;;
43710;SDS011;29309;42.682;23.372;2022-09-09T11:08:20;7.15;;;4.90;;
43710;SDS011;29309;42.682;23.372;2022-09-09T11:13:29;8.40;;;6.07;;
43710;SDS011;29309;42.682;23.372;2022-09-09T11:21:45;19.83;;;7.10;;
43710;SDS011;29309;42.682;23.372;2022-09-09T11:24:29;7.90;;;5.43;;
43710;SDS011;29309;42.682;23.372;2022-09-09T11:27:02;17.48;;;5.95;;
43710;SDS011;29309;42.682;23.372;2022-09-09T11:32:11;11.90;;;6.63;;
43710;SDS011;29309;42.682;23.372;2022-09-09T11:40:24;10.65;;;5.50;;
43710;SDS011;29309;42.682;23.372;2022-09-09T11:45:30;9.35;;;6.60;;
43710;SDS011;29309;42.682;23.372;2022-09-09T11:47:59;15.32;;;7.07;;
43710;SDS011;29309;42.682;23.372;2022-09-09T11:53:18;11.00;;;6.22;;
43710;SDS011;29309;42.682;23.372;2022-09-09T11:56:27;16.30;;;5.75;;
43710;SDS011;29309;42.682;23.372;2022-09-09T11:58:57;15.07;;;6.50;;
43710;SDS011;29309;42.682;23.372;2022-09-09T12:01:27;9.25;;;5.93;;
43710;SDS011;29309;42.682;23.372;2022-09-09T12:06:43;7.97;;;5.82;;
43710;SDS011;29309;42.682;23.372;2022-09-09T12:12:04;10.82;;;5.93;;
43710;SDS011;29309;42.682;23.372;2022-09-09T12:17:41;12.02;;;6.50;;
43710;SDS011;29309;42.682;23.372;2022-09-09T12:25:22;11.65;;;6.03;;
43710;SDS011;29309;42.682;23.372;2022-09-09T12:30:28;11.93;;;5.82;;
43710;SDS011;29309;42.682;23.372;2022-09-09T12:33:02;10.13;;;5.82;;
43710;SDS011;29309;42.682;23.372;2022-09-09T12:35:36;8.25;;;5.68;;
43710;SDS011;29309;42.682;23.372;2022-09-09T12:38:03;12.43;;;7.05;;
43710;SDS011;29309;42.682;23.372;2022-09-09T12:40:36;16.35;;;6.63;;
43710;SDS011;29309;42.682;23.372;2022-09-09T12:43:14;11.63;;;7.47;;
43710;SDS011;29309;42.682;23.372;2022-09-09T12:45:42;10.15;;;6.63;;
43710;SDS011;29309;42.682;23.372;2022-09-09T12:48:08;12.10;;;5.68;;
43710;SDS011;29309;42.682;23.372;2022-09-09T12:53:16;9.00;;;6.18;;
43710;SDS011;29309;42.682;23.372;2022-09-09T12:55:56;17.40;;;6.53;;
43710;SDS011;29309;42.682;23.372;2022-09-09T12:58:23;11.68;;;6.13;;
43710;SDS011;29309;42.682;23.372;2022-09-09T13:00:51;13.65;;;5.90;;
43710;SDS011;29309;42.682;23.372;2022-09-09T13:03:21;13.82;;;5.88;;
43710;SDS011;29309;42.682;23.372;2022-09-09T13:05:47;9.75;;;6.28;;
43710;SDS011;29309;42.682;23.372;2022-09-09T13:08:14;12.93;;;5.90;;
43710;SDS011;29309;42.682;23.372;2022-09-09T13:10:47;19.88;;;6.65;;
43710;SDS011;29309;42.682;23.372;2022-09-09T13:13:23;17.83;;;7.13;;
43710;SDS011;29309;42.682;23.372;2022-09-09T13:15:52;10.75;;;5.88;;
43710;SDS011;29309;42.682;23.372;2022-09-09T13:18:21;6.45;;;5.68;;
43710;SDS011;29309;42.682;23.372;2022-09-09T13:20:49;9.02;;;5.90;;
43710;SDS011;29309;42.682;23.372;2022-09-09T13:23:15;10.70;;;6.03;;
43710;SDS011;29309;42.682;23.372;2022-09-09T13:25:57;12.75;;;6.68;;
43710;SDS011;29309;42.682;23.372;2022-09-09T13:28:26;13.95;;;6.32;;
43710;SDS011;29309;42.682;23.372;2022-09-09T13:31:00;11.27;;;6.70;;
43710;SDS011;29309;42.682;23.372;2022-09-09T13:38:24;12.68;;;6.43;;
43710;SDS011;29309;42.682;23.372;2022-09-09T13:43:22;14.38;;;7.15;;
43710;SDS011;29309;42.682;23.372;2022-09-09T13:45:57;12.25;;;6.78;;
43710;SDS011;29309;42.682;23.372;2022-09-09T13:48:27;11.68;;;7.65;;
43710;SDS011;29309;42.682;23.372;2022-09-09T13:51:02;12.02;;;6.70;;
43710;SDS011;29309;42.682;23.372;2022-09-09T13:53:32;9.65;;;7.28;;
43710;SDS011;29309;42.682;23.372;2022-09-09T13:55:58;9.27;;;6.63;;
43710;SDS011;29309;42.682;23.372;2022-09-09T13:58:24;10.13;;;6.60;;
43710;SDS011;29309;42.682;23.372;2022-09-09T14:00:51;15.70;;;6.50;;
43710;SDS011;29309;42.682;23.372;2022-09-09T14:03:18;9.95;;;6.05;;
43710;SDS011;29309;42.682;23.372;2022-09-09T14:05:44;8.45;;;5.40;;
43710;SDS011;29309;42.682;23.372;2022-09-09T14:08:13;9.95;;;6.38;;
43710;SDS011;29309;42.682;23.372;2022-09-09T14:10:45;15.35;;;7.47;;
43710;SDS011;29309;42.682;23.372;2022-09-09T14:13:10;16.35;;;5.43;;
43710;SDS011;29309;42.682;23.372;2022-09-09T14:15:37;11.88;;;5.93;;
43710;SDS011;29309;42.682;23.372;2022-09-09T14:18:03;12.20;;;6.00;;
43710;SDS011;29309;42.682;23.372;2022-09-09T14:20:28;10.93;;;5.88;;
43710;SDS011;29309;42.682;23.372;2022-09-09T14:22:54;11.20;;;6.43;;
43710;SDS011;29309;42.682;23.372;2022-09-09T14:25:19;14.35;;;6.38;;
43710;SDS011;29309;42.682;23.372;2022-09-09T14:27:45;12.38;;;7.13;;
43710;SDS011;29309;42.682;23.372;2022-09-09T14:30:11;18.90;;;6.57;;
43710;SDS011;29309;42.682;23.372;2022-09-09T14:32:37;11.93;;;6.03;;
43710;SDS011;29309;42.682;23.372;2022-09-09T14:35:02;8.88;;;5.80;;
43710;SDS011;29309;42.682;23.372;2022-09-09T14:37:28;15.00;;;6.68;;
43710;SDS011;29309;42.682;23.372;2022-09-09T14:39:55;21.50;;;6.22;;
43710;SDS011;29309;42.682;23.372;2022-09-09T14:42:21;9.98;;;6.05;;
43710;SDS011;29309;42.682;23.372;2022-09-09T14:44:47;10.57;;;5.60;;
43710;SDS011;29309;42.682;23.372;2022-09-09T14:47:15;12.05;;;6.00;;
43710;SDS011;29309;42.682;23.372;2022-09-09T14:49:40;11.68;;;5.90;;
43710;SDS011;29309;42.682;23.372;2022-09-09T14:52:06;13.80;;;7.22;;
43710;SDS011;29309;42.682;23.372;2022-09-09T14:54:36;8.93;;;5.90;;
43710;SDS011;29309;42.682;23.372;2022-09-09T14:57:02;16.50;;;6.10;;
43710;SDS011;29309;42.682;23.372;2022-09-09T14:59:28;11.40;;;6.30;;
43710;SDS011;29309;42.682;23.372;2022-09-09T15:01:53;7.28;;;6.32;;
43710;SDS011;29309;42.682;23.372;2022-09-09T15:04:19;12.80;;;6.53;;
43710;SDS011;29309;42.682;23.372;2022-09-09T15:06:45;7.50;;;5.65;;
43710;SDS011;29309;42.682;23.372;2022-09-09T15:09:13;10.55;;;6.97;;
43710;SDS011;29309;42.682;23.372;2022-09-09T15:11:39;13.10;;;5.90;;
43710;SDS011;29309;42.682;23.372;2022-09-09T15:14:05;9.50;;;6.47;;
43710;SDS011;29309;42.682;23.372;2022-09-09T15:16:32;10.20;;;6.45;;
43710;SDS011;29309;42.682;23.372;2022-09-09T15:18:58;17.35;;;6.90;;
43710;SDS011;29309;42.682;23.372;2022-09-09T15:21:26;8.68;;;5.60;;
43710;SDS011;29309;42.682;23.372;2022-09-09T15:23:56;9.02;;;5.18;;
43710;SDS011;29309;42.682;23.372;2022-09-09T15:26:22;9.68;;;6.22;;
43710;SDS011;29309;42.682;23.372;2022-09-09T15:28:48;11.50;;;7.55;;
43710;SDS011;29309;42.682;23.372;2022-09-09T15:31:16;9.00;;;5.95;;
43710;SDS011;29309;42.682;23.372;2022-09-09T15:33:52;13.23;;;7.93;;
43710;SDS011;29309;42.682;23.372;2022-09-09T15:36:25;16.52;;;8.02;;
43710;SDS011;29309;42.682;23.372;2022-09-09T15:38:53;15.40;;;6.10;;
43710;SDS011;29309;42.682;23.372;2022-09-09T15:41:20;9.93;;;5.85;;
43710;SDS011;29309;42.682;23.372;2022-09-09T15:43:50;14.73;;;5.63;;
43710;SDS011;29309;42.682;23.372;2022-09-09T15:48:42;8.23;;;5.20;;
43710;SDS011;29309;42.682;23.372;2022-09-09T15:51:09;17.77;;;7.85;;
43710;SDS011;29309;42.682;23.372;2022-09-09T15:53:36;9.57;;;5.75;;
43710;SDS011;29309;42.682;23.372;2022-09-09T15:56:05;14.75;;;4.90;;
43710;SDS011;29309;42.682;23.372;2022-09-09T15:58:33;10.55;;;5.72;;
43710;SDS011;29309;42.682;23.372;2022-09-09T16:01:04;15.45;;;5.97;;
43710;SDS011;29309;42.682;23.372;2022-09-09T16:03:34;17.05;;;7.13;;
43710;SDS011;29309;42.682;23.372;2022-09-09T16:06:00;8.98;;;6.07;;
43710;SDS011;29309;42.682;23.372;2022-09-09T16:08:36;17.83;;;6.15;;
43710;SDS011;29309;42.682;23.372;2022-09-09T16:11:04;14.57;;;7.65;;
43710;SDS011;29309;42.682;23.372;2022-09-09T16:13:35;12.10;;;7.20;;
43710;SDS011;29309;42.682;23.372;2022-09-09T16:16:02;13.10;;;8.23;;
43710;SDS011;29309;42.682;23.372;2022-09-09T16:18:42;9.57;;;6.47;;
43710;SDS011;29309;42.682;23.372;2022-09-09T16:21:18;11.13;;;5.38;;
43710;SDS011;29309;42.682;23.372;2022-09-09T16:23:45;22.45;;;6.40;;
43710;SDS011;29309;42.682;23.372;2022-09-09T16:26:12;12.23;;;5.65;;
43710;SDS011;29309;42.682;23.372;2022-09-09T16:28:38;17.98;;;5.53;;
43710;SDS011;29309;42.682;23.372;2022-09-09T16:31:05;15.48;;;5.97;;
43710;SDS011;29309;42.682;23.372;2022-09-09T16:33:35;11.40;;;5.82;;
43710;SDS011;29309;42.682;23.372;2022-09-09T16:36:08;13.23;;;6.05;;
43710;SDS011;29309;42.682;23.372;2022-09-09T16:38:35;20.23;;;7.20;;
43710;SDS011;29309;42.682;23.372;2022-09-09T16:41:02;20.13;;;8.00;;
43710;SDS011;29309;42.682;23.372;2022-09-09T16:43:33;20.45;;;9.43;;
43710;SDS011;29309;42.682;23.372;2022-09-09T16:46:00;17.05;;;8.68;;
43710;SDS011;29309;42.682;23.372;2022-09-09T16:48:26;13.00;;;7.28;;
43710;SDS011;29309;42.682;23.372;2022-09-09T16:51:00;16.08;;;6.35;;
43710;SDS011;29309;42.682;23.372;2022-09-09T16:53:26;15.50;;;8.30;;
43710;SDS011;29309;42.682;23.372;2022-09-09T16:55:52;11.88;;;6.82;;
43710;SDS011;29309;42.682;23.372;2022-09-09T16:58:18;17.27;;;6.68;;
43710;SDS011;29309;42.682;23.372;2022-09-09T17:00:43;14.70;;;6.25;;
43710;SDS011;29309;42.682;23.372;2022-09-09T17:03:12;12.93;;;6.72;;
43710;SDS011;29309;42.682;23.372;2022-09-09T17:05:41;19.73;;;7.70;;
43710;SDS011;29309;42.682;23.372;2022-09-09T17:08:06;19.63;;;8.15;;
43710;SDS011;29309;42.682;23.372;2022-09-09T17:10:32;20.10;;;8.30;;
43710;SDS011;29309;42.682;23.372;2022-09-09T17:12:57;17.58;;;6.75;;
43710;SDS011;29309;42.682;23.372;2022-09-09T17:15:23;17.52;;;7.78;;